Terminal Aerodrome Forecast
Issued by NWS Cleveland, OH

Home | Current Version | Previous Version | Text Only | Print | Product List | Glossary Off
Versions: 1 2 3 4 5 6 7 8 9 10 11 12 13 14 15 16

364
FTUS41 KCLE 172342
TAFYNG
TAF
KYNG 172342Z 1800/1824 28012KT 6SM -SN SCT025 OVC035
      TEMPO 1800/1803 5SM -SN BKN025
     FM180300 27010KT P6SM OVC035
     FM181200 24006KT P6SM BKN035
     FM182100 18008KT P6SM SCT025 OVC040=

USA.gov is the U.S. government's official web portal to all federal, state and local government web resources and services.